createdAt,value
2023-03-18T00:01:42.092Z,7.85
2023-03-18T00:04:10.301Z,8.65
2023-03-18T00:06:40.636Z,7.55
2023-03-18T00:09:08.788Z,7.80
2023-03-18T00:11:37.727Z,7.20
2023-03-18T00:14:05.848Z,7.22
2023-03-18T00:16:35.213Z,6.82
2023-03-18T00:19:04.216Z,8.00
2023-03-18T00:21:32.748Z,7.80
2023-03-18T00:24:03.296Z,7.53
2023-03-18T00:26:31.992Z,7.53
2023-03-18T00:29:01.023Z,7.78
2023-03-18T00:31:29.911Z,7.47
2023-03-18T00:33:58.243Z,7.93
2023-03-18T00:36:26.642Z,7.85
2023-03-18T00:38:57.792Z,7.68
2023-03-18T00:41:29.094Z,7.95
2023-03-18T00:43:57.622Z,8.60
2023-03-18T00:46:28.061Z,7.53
2023-03-18T00:48:58.610Z,6.03
2023-03-18T00:51:29.010Z,6.75
2023-03-18T00:53:58.869Z,7.15
2023-03-18T00:56:30.946Z,7.20
2023-03-18T00:58:59.478Z,8.73
2023-03-18T01:01:28.914Z,6.53
2023-03-18T01:03:56.967Z,6.93
2023-03-18T01:06:28.699Z,8.30
2023-03-18T01:08:58.645Z,6.53
2023-03-18T01:11:28.839Z,6.93
2023-03-18T01:16:24.950Z,6.68
2023-03-18T01:18:53.826Z,6.90
2023-03-18T01:21:22.458Z,6.53
2023-03-18T01:23:50.687Z,6.93
2023-03-18T01:26:19.664Z,6.50
2023-03-18T01:28:49.040Z,6.68
2023-03-18T01:31:17.757Z,6.10
2023-03-18T01:33:46.424Z,6.60
2023-03-18T01:36:15.705Z,8.25
2023-03-18T01:38:43.748Z,7.82
2023-03-18T01:41:13.307Z,7.65
2023-03-18T01:43:44.187Z,7.50
2023-03-18T01:46:34.480Z,8.32
2023-03-18T01:49:04.110Z,8.07
2023-03-18T01:51:32.452Z,7.00
2023-03-18T01:54:04.716Z,7.50
2023-03-18T01:56:38.556Z,7.57
2023-03-18T01:59:08.409Z,7.50
2023-03-18T02:01:42.875Z,7.40
2023-03-18T02:04:12.083Z,7.95
2023-03-18T02:06:40.795Z,7.87
2023-03-18T02:09:09.745Z,9.05
2023-03-18T02:11:40.802Z,8.30
2023-03-18T02:14:13.877Z,7.47
2023-03-18T02:16:48.631Z,7.47
2023-03-18T02:19:27.906Z,7.38
2023-03-18T02:22:03.171Z,8.10
2023-03-18T02:24:40.637Z,7.75
2023-03-18T02:27:18.423Z,7.03
2023-03-18T02:29:47.900Z,8.48
2023-03-18T02:32:17.164Z,7.10
2023-03-18T02:34:46.589Z,8.23
2023-03-18T02:37:14.809Z,7.30
2023-03-18T02:39:43.051Z,8.13
2023-03-18T02:42:12.483Z,8.00
2023-03-18T02:44:45.945Z,8.18
2023-03-18T02:47:18.526Z,8.07
2023-03-18T02:49:46.881Z,7.85
2023-03-18T02:52:14.990Z,7.38
2023-03-18T02:54:43.067Z,8.27
2023-03-18T02:57:11.135Z,8.57
2023-03-18T02:59:39.130Z,7.15
2023-03-18T03:02:10.874Z,7.63
2023-03-18T03:04:39.811Z,7.63
2023-03-18T03:07:08.083Z,8.07
2023-03-18T03:09:36.199Z,6.85
2023-03-18T03:12:04.377Z,7.57
2023-03-18T03:14:32.612Z,7.38
2023-03-18T03:17:00.684Z,7.22
2023-03-18T03:19:30.942Z,7.38
2023-03-18T03:21:58.974Z,6.45
2023-03-18T03:24:27.474Z,6.90
2023-03-18T03:26:55.502Z,6.22
2023-03-18T03:29:23.800Z,6.65
2023-03-18T03:31:52.121Z,6.72
2023-03-18T03:34:20.531Z,7.45
2023-03-18T03:36:49.993Z,6.15
2023-03-18T03:39:17.996Z,7.10
2023-03-18T03:41:46.051Z,7.72
2023-03-18T03:44:14.097Z,6.15
2023-03-18T03:46:42.527Z,8.07
2023-03-18T03:49:10.550Z,7.72
2023-03-18T03:51:38.605Z,6.97
2023-03-18T03:54:08.107Z,7.20
2023-03-18T03:56:36.590Z,7.30
2023-03-18T03:59:04.973Z,7.18
2023-03-18T04:01:32.979Z,7.05
2023-03-18T04:04:03.042Z,6.63
2023-03-18T04:06:31.604Z,6.78
2023-03-18T04:08:59.585Z,6.60
2023-03-18T04:11:29.910Z,7.13
2023-03-18T04:13:58.431Z,6.57
2023-03-18T04:16:26.673Z,7.10
2023-03-18T04:18:54.817Z,7.45
2023-03-18T04:21:23.422Z,7.45
2023-03-18T04:23:51.741Z,7.65
2023-03-18T04:26:19.883Z,6.97
2023-03-18T04:28:49.517Z,7.35
2023-03-18T04:31:17.857Z,7.72
2023-03-18T04:33:45.930Z,8.13
2023-03-18T04:36:13.984Z,7.47
2023-03-18T04:38:42.072Z,7.45
2023-03-18T04:41:10.333Z,6.82
2023-03-18T04:43:38.347Z,6.82
2023-03-18T04:46:07.793Z,8.05
2023-03-18T04:48:36.273Z,10.50
2023-03-18T04:51:04.335Z,10.30
2023-03-18T04:53:32.639Z,7.63
2023-03-18T04:56:00.646Z,7.43
2023-03-18T04:58:28.761Z,7.03
2023-03-18T05:00:57.068Z,7.93
2023-03-18T05:03:26.478Z,7.30
2023-03-18T05:05:54.558Z,7.05
2023-03-18T05:08:24.331Z,5.70
2023-03-18T05:10:52.513Z,7.90
2023-03-18T05:13:20.988Z,6.95
2023-03-18T05:15:49.006Z,6.95
2023-03-18T05:18:17.223Z,8.55
2023-03-18T05:20:47.338Z,7.82
2023-03-18T05:25:44.090Z,8.10
2023-03-18T05:28:12.591Z,7.70
2023-03-18T05:30:40.896Z,8.10
2023-03-18T05:33:09.017Z,8.20
2023-03-18T05:35:37.195Z,7.65
2023-03-18T05:38:06.956Z,8.75
2023-03-18T05:40:35.280Z,9.55
2023-03-18T05:43:04.212Z,8.45
2023-03-18T05:45:34.295Z,7.93
2023-03-18T05:48:02.494Z,8.32
2023-03-18T05:50:31.753Z,6.68
2023-03-18T05:53:00.883Z,7.03
2023-03-18T05:55:32.230Z,7.82
2023-03-18T05:58:01.160Z,7.63
2023-03-18T06:00:30.073Z,7.05
2023-03-18T06:02:58.464Z,7.43
2023-03-18T06:05:27.445Z,6.90
2023-03-18T06:07:56.215Z,7.50
2023-03-18T06:10:25.290Z,6.57
2023-03-18T06:12:56.569Z,6.00
2023-03-18T06:15:25.919Z,6.70
2023-03-18T06:17:54.051Z,6.80
2023-03-18T06:20:23.462Z,6.85
2023-03-18T06:22:51.789Z,6.43
2023-03-18T06:25:23.360Z,7.38
2023-03-18T06:27:52.294Z,6.55
2023-03-18T06:30:22.268Z,5.70
2023-03-18T06:32:50.355Z,6.53
2023-03-18T06:35:19.063Z,6.72
2023-03-18T06:37:47.370Z,7.40
2023-03-18T06:40:15.805Z,6.45
2023-03-18T06:42:44.839Z,6.53
2023-03-18T06:45:13.950Z,6.28
2023-03-18T06:47:43.405Z,6.88
2023-03-18T06:50:13.676Z,7.25
2023-03-18T06:52:42.408Z,6.68
2023-03-18T06:55:11.852Z,6.65
2023-03-18T06:57:41.528Z,7.43
2023-03-18T07:00:11.646Z,5.68
2023-03-18T07:05:12.846Z,6.72
2023-03-18T07:07:42.211Z,6.63
2023-03-18T07:10:18.251Z,6.68
2023-03-18T07:12:48.088Z,6.95
2023-03-18T07:15:16.384Z,6.43
2023-03-18T07:17:44.907Z,7.18
2023-03-18T07:20:15.433Z,7.00
2023-03-18T07:22:43.975Z,6.80
2023-03-18T07:25:13.381Z,7.07
2023-03-18T07:27:42.328Z,7.35
2023-03-18T07:30:12.020Z,6.78
2023-03-18T07:32:40.158Z,7.63
2023-03-18T07:35:10.970Z,6.95
2023-03-18T07:37:42.870Z,7.32
2023-03-18T07:40:13.234Z,6.95
2023-03-18T07:42:41.392Z,5.25
2023-03-18T07:45:11.392Z,6.32
2023-03-18T07:47:39.718Z,6.20
2023-03-18T07:50:09.099Z,5.82
2023-03-18T07:52:37.529Z,5.22
2023-03-18T07:55:09.187Z,5.47
2023-03-18T07:57:37.948Z,4.85
2023-03-18T08:00:07.708Z,4.07
2023-03-18T08:02:36.295Z,3.72
2023-03-18T08:05:04.579Z,3.70
2023-03-18T08:07:32.651Z,3.00
2023-03-18T08:10:00.795Z,1.40
2023-03-18T08:12:41.652Z,1.02
2023-03-18T08:15:18.728Z,0.80
2023-03-18T08:17:47.400Z,1.00
2023-03-18T08:20:16.560Z,0.98
2023-03-18T08:22:46.786Z,1.00
2023-03-18T08:27:46.392Z,1.20
2023-03-18T08:30:15.586Z,1.02
2023-03-18T08:32:43.648Z,1.47
2023-03-18T08:35:12.827Z,1.15
2023-03-18T08:37:41.215Z,0.73
2023-03-18T08:40:10.879Z,0.90
2023-03-18T08:42:39.323Z,1.30
2023-03-18T08:45:11.192Z,0.75
2023-03-18T08:47:39.852Z,1.20
2023-03-18T08:50:37.767Z,0.90
2023-03-18T08:53:16.581Z,1.20
2023-03-18T08:58:38.846Z,1.15
2023-03-18T09:01:11.409Z,0.90
2023-03-18T09:03:49.387Z,0.98
2023-03-18T09:06:18.015Z,0.90
2023-03-18T09:08:46.640Z,0.80
2023-03-18T09:11:22.219Z,0.85
2023-03-18T09:13:50.787Z,0.88
2023-03-18T09:16:20.228Z,0.60
2023-03-18T09:18:48.985Z,0.70
2023-03-18T09:21:17.513Z,0.80
2023-03-18T09:23:46.043Z,1.02
2023-03-18T09:26:14.930Z,1.10
2023-03-18T09:28:42.952Z,1.30
2023-03-18T09:31:11.059Z,1.27
2023-03-18T09:33:42.396Z,1.48
2023-03-18T09:36:11.659Z,1.05
2023-03-18T09:38:39.681Z,1.10
2023-03-18T09:41:22.138Z,1.02
2023-03-18T09:44:05.662Z,0.80
2023-03-18T09:46:44.919Z,1.20
2023-03-18T09:49:29.658Z,1.17
2023-03-18T09:52:08.170Z,0.77
2023-03-18T09:54:41.390Z,1.13
2023-03-18T09:57:19.654Z,0.55
2023-03-18T09:59:55.502Z,0.70
2023-03-18T10:02:27.295Z,1.10
2023-03-18T10:05:00.028Z,0.47
2023-03-18T10:07:35.739Z,1.27
2023-03-18T10:10:08.132Z,1.27
2023-03-18T10:12:38.600Z,0.90
2023-03-18T10:15:16.916Z,0.65
2023-03-18T10:17:49.404Z,0.75
2023-03-18T10:20:54.730Z,0.80
2023-03-18T10:23:53.890Z,0.82
2023-03-18T10:26:54.706Z,0.77
2023-03-18T10:29:33.390Z,0.82
2023-03-18T10:32:10.301Z,1.05
2023-03-18T10:34:43.106Z,0.73
2023-03-18T10:37:20.892Z,1.10
2023-03-18T10:39:50.411Z,0.65
2023-03-18T10:42:24.477Z,0.77
2023-03-18T10:44:54.729Z,1.48
2023-03-18T10:47:28.345Z,1.00
2023-03-18T10:50:11.156Z,1.13
2023-03-18T10:52:48.347Z,0.98
2023-03-18T10:55:19.002Z,1.25
2023-03-18T10:57:47.094Z,1.00
2023-03-18T11:00:28.484Z,0.70
2023-03-18T11:02:57.287Z,0.90
2023-03-18T11:05:28.455Z,1.00
2023-03-18T11:07:59.960Z,1.15
2023-03-18T11:10:41.961Z,1.20
2023-03-18T11:13:17.918Z,1.77
2023-03-18T11:15:50.313Z,0.85
2023-03-18T11:18:23.218Z,0.80
2023-03-18T11:21:01.070Z,1.17
2023-03-18T11:23:46.549Z,1.23
2023-03-18T11:26:22.665Z,0.80
2023-03-18T11:28:50.748Z,0.75
2023-03-18T11:31:20.143Z,1.00
2023-03-18T11:33:48.195Z,1.17
2023-03-18T11:36:19.771Z,1.10
2023-03-18T11:38:59.093Z,0.75
2023-03-18T11:41:30.228Z,1.40
2023-03-18T11:44:00.590Z,1.50
2023-03-18T11:46:33.387Z,1.80
2023-03-18T11:49:01.433Z,1.65
2023-03-18T11:51:46.879Z,1.40
2023-03-18T11:54:35.812Z,1.40
2023-03-18T11:57:12.566Z,1.45
2023-03-18T11:59:52.475Z,1.42
2023-03-18T12:02:36.565Z,1.60
2023-03-18T12:05:35.437Z,1.30
2023-03-18T12:08:12.436Z,1.38
2023-03-18T12:10:49.019Z,0.30
2023-03-18T12:13:31.697Z,0.30
2023-03-18T12:16:09.958Z,0.30
2023-03-18T12:18:54.560Z,0.00
2023-03-18T12:21:47.723Z,0.15
2023-03-18T12:24:35.253Z,0.50
2023-03-18T12:27:16.045Z,0.40
2023-03-18T12:30:06.747Z,0.50
2023-03-18T12:32:42.034Z,0.50
2023-03-18T12:35:25.321Z,0.70
2023-03-18T12:38:14.107Z,0.60
2023-03-18T12:40:59.158Z,0.40
2023-03-18T12:43:43.148Z,0.65
2023-03-18T12:46:22.795Z,0.60
2023-03-18T12:48:57.310Z,0.57
2023-03-18T12:51:29.732Z,0.10
2023-03-18T12:54:04.726Z,0.17
2023-03-18T12:56:36.900Z,0.20
2023-03-18T12:59:10.076Z,0.20
2023-03-18T13:01:47.859Z,0.30
2023-03-18T13:04:22.292Z,0.10
2023-03-18T13:06:59.924Z,0.10
2023-03-18T13:09:39.286Z,0.17
2023-03-18T13:12:12.840Z,0.20
2023-03-18T13:14:53.068Z,0.10
2023-03-18T13:19:53.263Z,0.10
2023-03-18T13:22:55.059Z,0.25
2023-03-18T13:25:33.680Z,0.30
2023-03-18T13:28:29.198Z,0.38
2023-03-18T13:31:12.285Z,0.25
2023-03-18T13:34:04.053Z,0.35
2023-03-18T13:37:01.877Z,0.50
2023-03-18T13:39:50.761Z,0.30
2023-03-18T13:42:28.820Z,0.57
2023-03-18T13:45:06.980Z,0.28
2023-03-18T13:47:39.004Z,0.50
2023-03-18T13:50:25.354Z,0.43
2023-03-18T13:52:56.689Z,0.30
2023-03-18T13:55:33.131Z,0.20
2023-03-18T13:58:21.375Z,0.28
2023-03-18T14:01:15.714Z,0.10
2023-03-18T14:04:30.404Z,0.30
2023-03-18T14:07:14.967Z,0.25
2023-03-18T14:10:18.822Z,0.15
2023-03-18T14:12:49.138Z,0.43
2023-03-18T14:15:45.571Z,0.25
2023-03-18T14:18:27.294Z,0.40
2023-03-18T14:21:02.738Z,0.60
2023-03-18T14:23:40.926Z,0.20
2023-03-18T14:26:21.520Z,2.60
2023-03-18T14:28:54.703Z,0.30
2023-03-18T14:31:33.694Z,0.93
2023-03-18T14:34:24.866Z,0.50
2023-03-18T14:37:30.547Z,0.25
2023-03-18T14:40:08.836Z,0.10
2023-03-18T14:42:53.869Z,0.10
2023-03-18T14:45:27.576Z,0.10
2023-03-18T14:47:57.746Z,0.38
2023-03-18T14:53:14.029Z,0.30
2023-03-18T14:55:43.006Z,0.55
2023-03-18T14:58:17.536Z,0.30
2023-03-18T15:00:47.932Z,0.38
2023-03-18T15:03:21.070Z,0.40
2023-03-18T15:05:51.078Z,0.50
2023-03-18T15:08:37.442Z,0.20
2023-03-18T15:11:14.280Z,0.63
2023-03-18T15:13:43.684Z,0.70
2023-03-18T15:16:14.825Z,0.30
2023-03-18T15:18:43.689Z,0.52
2023-03-18T15:21:15.864Z,0.40
2023-03-18T15:23:49.894Z,0.28
2023-03-18T15:26:23.688Z,0.80
2023-03-18T15:28:56.565Z,0.88
2023-03-18T15:31:25.776Z,0.63
2023-03-18T15:34:06.183Z,0.87
2023-03-18T15:36:42.048Z,0.68
2023-03-18T15:39:33.030Z,0.80
2023-03-18T15:42:02.376Z,0.60
2023-03-18T15:44:32.312Z,0.90
2023-03-18T15:47:10.407Z,0.55
2023-03-18T15:49:50.006Z,0.60
2023-03-18T15:52:18.708Z,0.57
2023-03-18T15:54:49.744Z,1.13
2023-03-18T15:57:30.210Z,0.80
2023-03-18T15:59:58.731Z,0.68
2023-03-18T16:02:27.530Z,0.75
2023-03-18T16:05:06.292Z,1.17
2023-03-18T16:07:34.659Z,1.02
2023-03-18T16:10:04.101Z,0.88
2023-03-18T16:12:34.862Z,0.47
2023-03-18T16:15:05.577Z,0.95
2023-03-18T16:17:34.309Z,0.60
2023-03-18T16:20:04.367Z,0.93
2023-03-18T16:22:33.902Z,0.35
2023-03-18T16:25:03.339Z,0.22
2023-03-18T16:27:35.840Z,0.38
2023-03-18T16:30:03.981Z,0.35
2023-03-18T16:32:32.417Z,0.30
2023-03-18T16:35:00.713Z,0.20
2023-03-18T16:37:29.221Z,0.55
2023-03-18T16:39:57.299Z,0.90
2023-03-18T16:42:27.249Z,0.20
2023-03-18T16:44:55.973Z,0.30
2023-03-18T16:47:27.781Z,0.30
2023-03-18T16:49:56.705Z,0.65
2023-03-18T16:52:25.421Z,0.70
2023-03-18T16:54:53.912Z,0.65
2023-03-18T16:57:23.675Z,0.68
2023-03-18T16:59:56.132Z,0.93
2023-03-18T17:02:32.428Z,0.85
2023-03-18T17:05:01.782Z,1.10
2023-03-18T17:07:30.647Z,0.63
2023-03-18T17:09:58.805Z,0.70
2023-03-18T17:12:29.296Z,1.35
2023-03-18T17:15:00.219Z,1.50
2023-03-18T17:17:37.344Z,3.78
2023-03-18T17:20:20.115Z,5.18
2023-03-18T17:22:49.048Z,2.40
2023-03-18T17:25:17.665Z,1.95
2023-03-18T17:27:49.958Z,1.10
2023-03-18T17:30:22.847Z,1.27
2023-03-18T17:33:03.037Z,0.75
2023-03-18T17:38:15.645Z,3.35
2023-03-18T17:40:46.290Z,2.03
2023-03-18T17:43:20.320Z,1.50
2023-03-18T17:46:06.879Z,0.93
2023-03-18T17:48:37.075Z,0.98
2023-03-18T17:53:40.292Z,1.42
2023-03-18T17:56:14.985Z,1.65
2023-03-18T17:58:50.132Z,1.50
2023-03-18T18:01:25.740Z,1.73
2023-03-18T18:03:55.315Z,1.50
2023-03-18T18:06:34.999Z,1.20
2023-03-18T18:09:06.061Z,2.30
2023-03-18T18:11:42.024Z,2.88
2023-03-18T18:14:21.084Z,2.67
2023-03-18T18:17:10.936Z,4.68
2023-03-18T18:19:39.111Z,5.25
2023-03-18T18:22:28.936Z,4.90
2023-03-18T18:28:43.686Z,1.60
2023-03-18T18:31:17.701Z,2.35
2023-03-18T18:33:55.958Z,1.80
2023-03-18T18:42:55.865Z,3.15
2023-03-18T18:45:32.776Z,2.42
2023-03-18T18:51:28.702Z,2.20
2023-03-18T18:53:57.243Z,1.95
2023-03-18T18:56:32.248Z,2.78
2023-03-18T18:59:00.612Z,3.00
2023-03-18T19:01:29.110Z,2.42
2023-03-18T19:03:57.324Z,2.60
2023-03-18T19:06:29.310Z,2.67
2023-03-18T19:08:59.219Z,2.25
2023-03-18T19:11:28.077Z,1.27
2023-03-18T19:14:06.714Z,1.10
2023-03-18T19:16:35.974Z,1.38
2023-03-18T19:19:04.126Z,1.33
2023-03-18T19:21:33.879Z,2.80
2023-03-18T19:24:02.350Z,1.83
2023-03-18T19:26:30.428Z,2.45
2023-03-18T19:28:59.906Z,1.98
2023-03-18T19:31:30.721Z,3.30
2023-03-18T19:34:00.573Z,3.95
2023-03-18T19:36:31.562Z,2.15
2023-03-18T19:39:02.706Z,2.28
2023-03-18T19:41:31.537Z,3.53
2023-03-18T19:44:04.195Z,4.35
2023-03-18T19:46:36.625Z,4.47
2023-03-18T19:49:04.649Z,2.33
2023-03-18T19:51:32.763Z,2.10
2023-03-18T19:54:02.385Z,2.03
2023-03-18T19:56:31.526Z,1.73
2023-03-18T19:59:00.366Z,2.55
2023-03-18T20:01:29.430Z,0.90
2023-03-18T20:03:59.229Z,1.02
2023-03-18T20:06:27.740Z,1.65
2023-03-18T20:08:55.764Z,1.17
2023-03-18T20:11:25.445Z,1.30
2023-03-18T20:13:54.688Z,1.48
2023-03-18T20:16:22.900Z,1.63
2023-03-18T20:18:51.354Z,2.15
2023-03-18T20:21:25.628Z,2.85
2023-03-18T20:23:54.094Z,1.67
2023-03-18T20:26:24.686Z,1.30
2023-03-18T20:28:55.915Z,1.88
2023-03-18T20:31:23.903Z,1.38
2023-03-18T20:33:52.657Z,1.98
2023-03-18T20:36:21.041Z,1.67
2023-03-18T20:38:50.454Z,2.03
2023-03-18T20:41:20.007Z,1.60
2023-03-18T20:43:50.400Z,2.50
2023-03-18T20:46:22.144Z,1.67
2023-03-18T20:48:53.373Z,2.03
2023-03-18T20:51:24.304Z,2.03
2023-03-18T20:53:52.338Z,1.77
2023-03-18T20:56:22.982Z,2.03
2023-03-18T20:58:52.769Z,1.45
2023-03-18T21:01:22.742Z,1.70
2023-03-18T21:03:50.945Z,0.88
2023-03-18T21:06:21.001Z,1.77
2023-03-18T21:08:49.021Z,1.85
2023-03-18T21:11:27.021Z,2.30
2023-03-18T21:13:57.082Z,2.03
2023-03-18T21:16:25.153Z,1.50
2023-03-18T21:18:53.140Z,2.40
2023-03-18T21:21:24.451Z,2.15
2023-03-18T21:26:20.975Z,1.98
2023-03-18T21:28:48.948Z,1.98
2023-03-18T21:31:25.458Z,2.47
2023-03-18T21:33:53.556Z,2.13
2023-03-18T21:36:21.832Z,2.10
2023-03-18T21:38:50.003Z,1.98
2023-03-18T21:41:24.323Z,1.60
2023-03-18T21:43:52.567Z,2.50
2023-03-18T21:46:24.605Z,2.78
2023-03-18T21:48:53.272Z,5.18
2023-03-18T21:51:37.929Z,2.92
2023-03-18T21:54:07.261Z,3.95
2023-03-18T21:56:35.386Z,2.95
2023-03-18T21:59:03.629Z,2.80
2023-03-18T22:01:33.690Z,1.92
2023-03-18T22:04:01.802Z,2.58
2023-03-18T22:06:29.979Z,2.00
2023-03-18T22:09:00.619Z,2.15
2023-03-18T22:11:29.942Z,1.85
2023-03-18T22:13:57.919Z,2.10
2023-03-18T22:16:26.070Z,1.40
2023-03-18T22:18:55.552Z,1.65
2023-03-18T22:21:27.649Z,1.00
2023-03-18T22:24:00.348Z,1.48
2023-03-18T22:26:28.464Z,1.50
2023-03-18T22:28:56.489Z,2.00
2023-03-18T22:31:28.580Z,1.80
2023-03-18T22:34:00.998Z,1.77
2023-03-18T22:36:29.672Z,2.00
2023-03-18T22:39:00.288Z,1.98
2023-03-18T22:41:30.617Z,1.27
2023-03-18T22:44:00.201Z,1.17
2023-03-18T22:46:29.993Z,2.22
2023-03-18T22:49:05.398Z,2.17
2023-03-18T22:51:39.253Z,1.23
2023-03-18T22:54:07.762Z,1.63
2023-03-18T22:56:36.540Z,2.45
2023-03-18T22:59:05.045Z,1.50
2023-03-18T23:01:33.184Z,1.40
2023-03-18T23:04:02.688Z,2.08
2023-03-18T23:06:31.890Z,2.55
2023-03-18T23:08:59.934Z,1.70
2023-03-18T23:11:27.997Z,1.60
2023-03-18T23:13:56.082Z,1.40
2023-03-18T23:16:26.300Z,1.60
2023-03-18T23:21:26.981Z,1.70
2023-03-18T23:23:56.120Z,2.00
2023-03-18T23:26:24.124Z,1.67
2023-03-18T23:28:52.258Z,1.77
2023-03-18T23:31:20.741Z,1.23
2023-03-18T23:33:48.817Z,1.50
2023-03-18T23:36:17.163Z,1.55
2023-03-18T23:38:46.722Z,1.40
2023-03-18T23:41:14.810Z,1.45
2023-03-18T23:43:42.803Z,1.35
2023-03-18T23:46:11.318Z,1.77
2023-03-18T23:48:39.356Z,1.58
2023-03-18T23:51:07.542Z,1.58
2023-03-18T23:53:35.897Z,1.25
2023-03-18T23:56:05.522Z,1.50
2023-03-18T23:58:33.522Z,2.72
